sensor_id;sensor_type;location;lat;lon;timestamp;temperature;humidity
34833;DHT22;55941;50.800;4.342;2022-12-18T00:00:44;-1.90;99.90
34833;DHT22;55941;50.800;4.342;2022-12-18T00:03:14;-1.90;99.90
34833;DHT22;55941;50.800;4.342;2022-12-18T00:05:50;-2.10;99.90
34833;DHT22;55941;50.800;4.342;2022-12-18T00:08:16;-2.00;99.90
34833;DHT22;55941;50.800;4.342;2022-12-18T00:10:43;-2.00;99.90
34833;DHT22;55941;50.800;4.342;2022-12-18T00:13:09;-2.10;99.90
34833;DHT22;55941;50.800;4.342;2022-12-18T00:15:35;-2.20;99.90
34833;DHT22;55941;50.800;4.342;2022-12-18T00:18:01;-2.20;99.90
34833;DHT22;55941;50.800;4.342;2022-12-18T00:20:27;-2.20;99.90
34833;DHT22;55941;50.800;4.342;2022-12-18T00:22:53;-2.10;99.90
34833;DHT22;55941;50.800;4.342;2022-12-18T00:25:19;-2.10;99.90
34833;DHT22;55941;50.800;4.342;2022-12-18T00:27:45;-2.30;99.90
34833;DHT22;55941;50.800;4.342;2022-12-18T00:30:12;-2.30;99.90
34833;DHT22;55941;50.800;4.342;2022-12-18T00:32:38;-2.30;99.90
34833;DHT22;55941;50.800;4.342;2022-12-18T00:35:05;-2.20;99.90
34833;DHT22;55941;50.800;4.342;2022-12-18T00:37:33;-2.20;99.90
34833;DHT22;55941;50.800;4.342;2022-12-18T00:39:59;-2.10;99.90
34833;DHT22;55941;50.800;4.342;2022-12-18T00:42:24;-2.20;99.90
34833;DHT22;55941;50.800;4.342;2022-12-18T00:45:09;-2.30;99.90
34833;DHT22;55941;50.800;4.342;2022-12-18T00:47:35;-2.40;99.90
34833;DHT22;55941;50.800;4.342;2022-12-18T00:50:02;-2.10;99.90
34833;DHT22;55941;50.800;4.342;2022-12-18T00:52:28;-2.00;99.90
34833;DHT22;55941;50.800;4.342;2022-12-18T00:54:56;-2.10;99.90
34833;DHT22;55941;50.800;4.342;2022-12-18T00:57:21;-2.20;99.90
34833;DHT22;55941;50.800;4.342;2022-12-18T00:59:48;-2.20;99.90
34833;DHT22;55941;50.800;4.342;2022-12-18T01:02:14;-2.10;99.90
34833;DHT22;55941;50.800;4.342;2022-12-18T01:04:40;-2.00;99.90
34833;DHT22;55941;50.800;4.342;2022-12-18T01:07:05;-2.10;99.90
34833;DHT22;55941;50.800;4.342;2022-12-18T01:09:31;-2.10;99.90
34833;DHT22;55941;50.800;4.342;2022-12-18T01:11:58;-2.20;99.90
34833;DHT22;55941;50.800;4.342;2022-12-18T01:14:24;-2.40;99.90
34833;DHT22;55941;50.800;4.342;2022-12-18T01:16:50;-2.30;99.90
34833;DHT22;55941;50.800;4.342;2022-12-18T01:19:16;-2.20;99.90
34833;DHT22;55941;50.800;4.342;2022-12-18T01:21:42;-2.30;99.90
34833;DHT22;55941;50.800;4.342;2022-12-18T01:24:11;-2.30;99.90
34833;DHT22;55941;50.800;4.342;2022-12-18T01:26:37;-2.30;99.90
34833;DHT22;55941;50.800;4.342;2022-12-18T01:29:03;-2.40;99.90
34833;DHT22;55941;50.800;4.342;2022-12-18T01:31:31;-2.50;99.90
34833;DHT22;55941;50.800;4.342;2022-12-18T01:34:00;-2.40;99.90
34833;DHT22;55941;50.800;4.342;2022-12-18T01:36:28;-2.50;99.90
34833;DHT22;55941;50.800;4.342;2022-12-18T01:38:55;-2.60;99.90
34833;DHT22;55941;50.800;4.342;2022-12-18T01:41:26;-2.50;99.90
34833;DHT22;55941;50.800;4.342;2022-12-18T01:47:21;-2.50;99.90
34833;DHT22;55941;50.800;4.342;2022-12-18T01:49:47;-2.50;99.90
34833;DHT22;55941;50.800;4.342;2022-12-18T01:52:13;-2.50;99.90
34833;DHT22;55941;50.800;4.342;2022-12-18T01:54:40;-2.70;99.90
34833;DHT22;55941;50.800;4.342;2022-12-18T01:57:07;-2.50;99.90
34833;DHT22;55941;50.800;4.342;2022-12-18T01:59:33;-2.60;99.90
34833;DHT22;55941;50.800;4.342;2022-12-18T02:02:01;-2.60;99.90
34833;DHT22;55941;50.800;4.342;2022-12-18T02:04:27;-2.50;99.90
34833;DHT22;55941;50.800;4.342;2022-12-18T02:07:25;-2.70;99.90
34833;DHT22;55941;50.800;4.342;2022-12-18T02:10:03;-2.70;99.90
34833;DHT22;55941;50.800;4.342;2022-12-18T02:12:45;-2.70;99.90
34833;DHT22;55941;50.800;4.342;2022-12-18T02:15:14;-2.60;99.90
34833;DHT22;55941;50.800;4.342;2022-12-18T02:25:40;-2.60;99.90
34833;DHT22;55941;50.800;4.342;2022-12-18T02:28:13;-2.60;99.90
34833;DHT22;55941;50.800;4.342;2022-12-18T02:30:41;-2.60;99.90
34833;DHT22;55941;50.800;4.342;2022-12-18T02:33:09;-2.60;99.90
34833;DHT22;55941;50.800;4.342;2022-12-18T02:35:38;-2.70;99.90
34833;DHT22;55941;50.800;4.342;2022-12-18T02:38:06;-2.70;99.90
34833;DHT22;55941;50.800;4.342;2022-12-18T02:40:32;-2.80;99.90
34833;DHT22;55941;50.800;4.342;2022-12-18T02:43:10;-2.70;99.90
34833;DHT22;55941;50.800;4.342;2022-12-18T02:45:49;-2.80;99.90
34833;DHT22;55941;50.800;4.342;2022-12-18T02:48:18;-2.80;99.90
34833;DHT22;55941;50.800;4.342;2022-12-18T02:50:56;-2.80;99.90
34833;DHT22;55941;50.800;4.342;2022-12-18T02:53:42;-2.90;99.90
34833;DHT22;55941;50.800;4.342;2022-12-18T02:56:38;-2.90;99.90
34833;DHT22;55941;50.800;4.342;2022-12-18T02:59:15;-2.90;99.90
34833;DHT22;55941;50.800;4.342;2022-12-18T03:04:43;-3.00;99.90
34833;DHT22;55941;50.800;4.342;2022-12-18T03:07:15;-3.00;99.90
34833;DHT22;55941;50.800;4.342;2022-12-18T03:09:46;-2.90;99.90
34833;DHT22;55941;50.800;4.342;2022-12-18T03:12:18;-3.10;99.90
34833;DHT22;55941;50.800;4.342;2022-12-18T03:15:09;-3.10;99.90
34833;DHT22;55941;50.800;4.342;2022-12-18T03:17:39;-3.00;99.90
34833;DHT22;55941;50.800;4.342;2022-12-18T03:20:14;-3.10;99.90
34833;DHT22;55941;50.800;4.342;2022-12-18T03:22:42;-3.10;99.90
34833;DHT22;55941;50.800;4.342;2022-12-18T03:25:11;-3.00;99.90
34833;DHT22;55941;50.800;4.342;2022-12-18T03:27:43;-3.10;99.90
34833;DHT22;55941;50.800;4.342;2022-12-18T03:30:10;-3.10;99.90
34833;DHT22;55941;50.800;4.342;2022-12-18T03:33:02;-3.20;99.90
34833;DHT22;55941;50.800;4.342;2022-12-18T03:35:34;-3.20;99.90
34833;DHT22;55941;50.800;4.342;2022-12-18T03:38:05;-3.20;99.90
34833;DHT22;55941;50.800;4.342;2022-12-18T03:40:45;-3.20;99.90
34833;DHT22;55941;50.800;4.342;2022-12-18T03:43:25;-3.20;99.90
34833;DHT22;55941;50.800;4.342;2022-12-18T03:46:01;-3.30;99.90
34833;DHT22;55941;50.800;4.342;2022-12-18T03:48:43;-3.30;99.90
34833;DHT22;55941;50.800;4.342;2022-12-18T03:51:39;-3.50;99.90
34833;DHT22;55941;50.800;4.342;2022-12-18T03:54:08;-3.40;99.90
34833;DHT22;55941;50.800;4.342;2022-12-18T03:56:40;-3.50;99.90
34833;DHT22;55941;50.800;4.342;2022-12-18T03:59:08;-3.40;99.90
34833;DHT22;55941;50.800;4.342;2022-12-18T04:01:39;-3.40;99.90
34833;DHT22;55941;50.800;4.342;2022-12-18T04:04:07;-3.40;99.90
34833;DHT22;55941;50.800;4.342;2022-12-18T04:06:34;-3.40;99.90
34833;DHT22;55941;50.800;4.342;2022-12-18T04:09:01;-3.40;99.90
34833;DHT22;55941;50.800;4.342;2022-12-18T04:11:27;-3.40;99.90
34833;DHT22;55941;50.800;4.342;2022-12-18T04:13:57;-3.40;99.90
34833;DHT22;55941;50.800;4.342;2022-12-18T04:16:27;-3.40;99.90
34833;DHT22;55941;50.800;4.342;2022-12-18T04:18:53;-3.40;99.90
34833;DHT22;55941;50.800;4.342;2022-12-18T04:21:20;-3.30;99.90
34833;DHT22;55941;50.800;4.342;2022-12-18T04:23:46;-3.20;99.90
34833;DHT22;55941;50.800;4.342;2022-12-18T04:26:12;-3.30;99.90
34833;DHT22;55941;50.800;4.342;2022-12-18T04:28:39;-3.30;99.90
34833;DHT22;55941;50.800;4.342;2022-12-18T04:31:05;-3.20;99.90
34833;DHT22;55941;50.800;4.342;2022-12-18T04:33:31;-3.30;99.90
34833;DHT22;55941;50.800;4.342;2022-12-18T04:35:57;-3.40;99.90
34833;DHT22;55941;50.800;4.342;2022-12-18T04:38:23;-3.40;99.90
34833;DHT22;55941;50.800;4.342;2022-12-18T04:40:49;-3.40;99.90
34833;DHT22;55941;50.800;4.342;2022-12-18T04:43:14;-3.40;99.90
34833;DHT22;55941;50.800;4.342;2022-12-18T04:45:40;-3.30;99.90
34833;DHT22;55941;50.800;4.342;2022-12-18T04:48:06;-3.30;99.90
34833;DHT22;55941;50.800;4.342;2022-12-18T04:50:32;-3.30;99.90
34833;DHT22;55941;50.800;4.342;2022-12-18T04:52:58;-3.40;99.90
34833;DHT22;55941;50.800;4.342;2022-12-18T04:55:24;-3.30;99.90
34833;DHT22;55941;50.800;4.342;2022-12-18T04:57:50;-3.20;99.90
34833;DHT22;55941;50.800;4.342;2022-12-18T05:00:17;-3.30;99.90
34833;DHT22;55941;50.800;4.342;2022-12-18T05:02:43;-3.40;99.90
34833;DHT22;55941;50.800;4.342;2022-12-18T05:05:09;-3.40;99.90
34833;DHT22;55941;50.800;4.342;2022-12-18T05:07:35;-3.40;99.90
34833;DHT22;55941;50.800;4.342;2022-12-18T05:10:01;-3.50;99.90
34833;DHT22;55941;50.800;4.342;2022-12-18T05:12:27;-3.50;99.90
34833;DHT22;55941;50.800;4.342;2022-12-18T05:14:53;-3.60;99.90
34833;DHT22;55941;50.800;4.342;2022-12-18T05:17:20;-3.60;99.90
34833;DHT22;55941;50.800;4.342;2022-12-18T05:19:45;-3.70;99.90
34833;DHT22;55941;50.800;4.342;2022-12-18T05:22:12;-3.80;99.90
34833;DHT22;55941;50.800;4.342;2022-12-18T05:24:38;-3.80;99.90
34833;DHT22;55941;50.800;4.342;2022-12-18T05:27:04;-3.70;99.90
34833;DHT22;55941;50.800;4.342;2022-12-18T05:29:30;-3.80;99.90
34833;DHT22;55941;50.800;4.342;2022-12-18T05:31:56;-3.70;99.90
34833;DHT22;55941;50.800;4.342;2022-12-18T05:34:22;-3.80;99.90
34833;DHT22;55941;50.800;4.342;2022-12-18T05:36:48;-3.70;99.90
34833;DHT22;55941;50.800;4.342;2022-12-18T05:39:14;-3.50;99.90
34833;DHT22;55941;50.800;4.342;2022-12-18T05:41:40;-3.50;99.90
34833;DHT22;55941;50.800;4.342;2022-12-18T05:44:06;-3.50;99.90
34833;DHT22;55941;50.800;4.342;2022-12-18T05:46:32;-3.40;99.90
34833;DHT22;55941;50.800;4.342;2022-12-18T05:49:01;-3.40;99.90
34833;DHT22;55941;50.800;4.342;2022-12-18T05:51:27;-3.30;99.90
34833;DHT22;55941;50.800;4.342;2022-12-18T05:53:53;-3.30;99.90
34833;DHT22;55941;50.800;4.342;2022-12-18T05:56:21;-3.20;99.90
34833;DHT22;55941;50.800;4.342;2022-12-18T05:58:50;-3.20;99.90
34833;DHT22;55941;50.800;4.342;2022-12-18T06:01:20;-3.20;99.90
34833;DHT22;55941;50.800;4.342;2022-12-18T06:03:46;-3.20;99.90
34833;DHT22;55941;50.800;4.342;2022-12-18T06:06:18;-3.30;99.90
34833;DHT22;55941;50.800;4.342;2022-12-18T06:08:45;-3.30;99.90
34833;DHT22;55941;50.800;4.342;2022-12-18T06:11:11;-3.30;99.90
34833;DHT22;55941;50.800;4.342;2022-12-18T06:13:38;-3.30;99.90
34833;DHT22;55941;50.800;4.342;2022-12-18T06:16:05;-3.40;99.90
34833;DHT22;55941;50.800;4.342;2022-12-18T06:18:31;-3.50;99.90
34833;DHT22;55941;50.800;4.342;2022-12-18T06:20:58;-3.50;99.90
34833;DHT22;55941;50.800;4.342;2022-12-18T06:23:25;-3.50;99.90
34833;DHT22;55941;50.800;4.342;2022-12-18T06:25:51;-3.50;99.90
34833;DHT22;55941;50.800;4.342;2022-12-18T06:28:18;-3.40;99.90
34833;DHT22;55941;50.800;4.342;2022-12-18T06:30:45;-3.50;99.90
34833;DHT22;55941;50.800;4.342;2022-12-18T06:33:12;-3.50;99.90
34833;DHT22;55941;50.800;4.342;2022-12-18T06:35:38;-3.60;99.90
34833;DHT22;55941;50.800;4.342;2022-12-18T06:38:05;-3.40;99.90
34833;DHT22;55941;50.800;4.342;2022-12-18T06:40:31;-3.50;99.90
34833;DHT22;55941;50.800;4.342;2022-12-18T06:42:57;-3.40;99.90
34833;DHT22;55941;50.800;4.342;2022-12-18T06:45:23;-3.40;99.90
34833;DHT22;55941;50.800;4.342;2022-12-18T06:47:50;-3.30;99.90
34833;DHT22;55941;50.800;4.342;2022-12-18T06:50:17;-3.20;99.90
34833;DHT22;55941;50.800;4.342;2022-12-18T06:52:44;-3.30;99.90
34833;DHT22;55941;50.800;4.342;2022-12-18T06:55:11;-3.20;99.90
34833;DHT22;55941;50.800;4.342;2022-12-18T06:57:37;-3.30;99.90
34833;DHT22;55941;50.800;4.342;2022-12-18T07:00:05;-3.20;99.90
34833;DHT22;55941;50.800;4.342;2022-12-18T07:02:31;-3.30;99.90
34833;DHT22;55941;50.800;4.342;2022-12-18T07:05:01;-3.10;99.90
34833;DHT22;55941;50.800;4.342;2022-12-18T07:07:27;-3.20;99.90
34833;DHT22;55941;50.800;4.342;2022-12-18T07:09:56;-3.00;99.90
34833;DHT22;55941;50.800;4.342;2022-12-18T07:12:22;-3.00;99.90
34833;DHT22;55941;50.800;4.342;2022-12-18T07:14:48;-3.00;99.90
34833;DHT22;55941;50.800;4.342;2022-12-18T07:17:15;-3.00;99.90
34833;DHT22;55941;50.800;4.342;2022-12-18T07:19:41;-2.90;99.90
34833;DHT22;55941;50.800;4.342;2022-12-18T07:22:07;-3.00;99.90
34833;DHT22;55941;50.800;4.342;2022-12-18T07:24:33;-2.90;99.90
34833;DHT22;55941;50.800;4.342;2022-12-18T07:27:00;-2.90;99.90
34833;DHT22;55941;50.800;4.342;2022-12-18T07:29:26;-2.80;99.90
34833;DHT22;55941;50.800;4.342;2022-12-18T07:31:52;-2.70;99.90
34833;DHT22;55941;50.800;4.342;2022-12-18T07:34:18;-2.70;99.90
34833;DHT22;55941;50.800;4.342;2022-12-18T07:36:44;-2.60;99.90
34833;DHT22;55941;50.800;4.342;2022-12-18T07:39:13;-2.60;99.90
34833;DHT22;55941;50.800;4.342;2022-12-18T07:41:40;-2.70;99.90
34833;DHT22;55941;50.800;4.342;2022-12-18T07:44:12;-2.70;99.90
34833;DHT22;55941;50.800;4.342;2022-12-18T07:46:38;-2.60;99.90
34833;DHT22;55941;50.800;4.342;2022-12-18T07:49:05;-2.60;99.90
34833;DHT22;55941;50.800;4.342;2022-12-18T07:51:31;-2.50;99.90
34833;DHT22;55941;50.800;4.342;2022-12-18T07:53:56;-2.50;99.90
34833;DHT22;55941;50.800;4.342;2022-12-18T07:56:22;-2.50;99.90
34833;DHT22;55941;50.800;4.342;2022-12-18T07:58:48;-2.50;99.90
34833;DHT22;55941;50.800;4.342;2022-12-18T08:01:14;-2.50;99.90
34833;DHT22;55941;50.800;4.342;2022-12-18T08:03:40;-2.30;99.90
34833;DHT22;55941;50.800;4.342;2022-12-18T08:06:09;-2.30;99.90
34833;DHT22;55941;50.800;4.342;2022-12-18T08:08:36;-2.30;99.90
34833;DHT22;55941;50.800;4.342;2022-12-18T08:11:02;-2.30;99.90
34833;DHT22;55941;50.800;4.342;2022-12-18T08:13:29;-2.20;99.90
34833;DHT22;55941;50.800;4.342;2022-12-18T08:16:03;-2.10;99.90
34833;DHT22;55941;50.800;4.342;2022-12-18T08:18:31;-2.00;99.90
34833;DHT22;55941;50.800;4.342;2022-12-18T08:20:57;-1.80;99.90
34833;DHT22;55941;50.800;4.342;2022-12-18T08:23:23;-1.70;99.90
34833;DHT22;55941;50.800;4.342;2022-12-18T08:25:58;-1.60;99.90
34833;DHT22;55941;50.800;4.342;2022-12-18T08:28:44;-1.40;99.90
34833;DHT22;55941;50.800;4.342;2022-12-18T08:31:16;-1.30;99.90
34833;DHT22;55941;50.800;4.342;2022-12-18T08:33:42;-1.30;99.90
34833;DHT22;55941;50.800;4.342;2022-12-18T08:36:09;-1.30;99.90
34833;DHT22;55941;50.800;4.342;2022-12-18T08:38:36;-1.10;99.90
34833;DHT22;55941;50.800;4.342;2022-12-18T08:41:07;-1.00;99.90
34833;DHT22;55941;50.800;4.342;2022-12-18T08:43:33;-1.00;99.90
34833;DHT22;55941;50.800;4.342;2022-12-18T08:46:18;-1.00;99.90
34833;DHT22;55941;50.800;4.342;2022-12-18T08:48:45;-1.00;99.90
34833;DHT22;55941;50.800;4.342;2022-12-18T08:51:11;-1.00;99.90
34833;DHT22;55941;50.800;4.342;2022-12-18T08:53:37;-0.90;99.90
34833;DHT22;55941;50.800;4.342;2022-12-18T08:56:04;-0.70;99.90
34833;DHT22;55941;50.800;4.342;2022-12-18T08:58:30;-0.70;99.90
34833;DHT22;55941;50.800;4.342;2022-12-18T09:01:00;-0.60;99.90
34833;DHT22;55941;50.800;4.342;2022-12-18T09:03:27;-0.60;99.90
34833;DHT22;55941;50.800;4.342;2022-12-18T09:05:53;-0.50;99.90
34833;DHT22;55941;50.800;4.342;2022-12-18T09:08:19;-0.50;99.90
34833;DHT22;55941;50.800;4.342;2022-12-18T09:10:48;-0.30;99.90
34833;DHT22;55941;50.800;4.342;2022-12-18T09:13:16;-0.10;99.90
34833;DHT22;55941;50.800;4.342;2022-12-18T09:15:47;-0.10;99.90
34833;DHT22;55941;50.800;4.342;2022-12-18T09:18:14;0.00;99.90
34833;DHT22;55941;50.800;4.342;2022-12-18T09:20:40;0.20;99.90
34833;DHT22;55941;50.800;4.342;2022-12-18T09:23:07;0.20;99.90
34833;DHT22;55941;50.800;4.342;2022-12-18T09:25:34;0.30;99.90
34833;DHT22;55941;50.800;4.342;2022-12-18T09:28:15;0.30;99.90
34833;DHT22;55941;50.800;4.342;2022-12-18T09:30:43;0.40;99.90
34833;DHT22;55941;50.800;4.342;2022-12-18T09:33:10;0.30;99.90
34833;DHT22;55941;50.800;4.342;2022-12-18T09:35:37;0.20;99.90
34833;DHT22;55941;50.800;4.342;2022-12-18T09:38:03;0.30;99.90
34833;DHT22;55941;50.800;4.342;2022-12-18T09:40:45;0.50;99.90
34833;DHT22;55941;50.800;4.342;2022-12-18T09:43:24;0.60;99.90
34833;DHT22;55941;50.800;4.342;2022-12-18T09:45:57;0.50;99.90
34833;DHT22;55941;50.800;4.342;2022-12-18T09:48:28;0.60;99.90
34833;DHT22;55941;50.800;4.342;2022-12-18T09:51:00;0.60;99.90
34833;DHT22;55941;50.800;4.342;2022-12-18T09:53:31;0.60;99.90
34833;DHT22;55941;50.800;4.342;2022-12-18T09:56:00;0.60;99.90
34833;DHT22;55941;50.800;4.342;2022-12-18T09:58:45;0.60;99.90
34833;DHT22;55941;50.800;4.342;2022-12-18T10:01:18;0.70;99.90
34833;DHT22;55941;50.800;4.342;2022-12-18T10:03:47;0.90;99.90
34833;DHT22;55941;50.800;4.342;2022-12-18T10:06:27;1.00;99.90
34833;DHT22;55941;50.800;4.342;2022-12-18T10:14:57;1.30;99.90
34833;DHT22;55941;50.800;4.342;2022-12-18T10:17:40;1.10;99.90
34833;DHT22;55941;50.800;4.342;2022-12-18T10:20:26;1.10;99.90
34833;DHT22;55941;50.800;4.342;2022-12-18T10:26:11;1.20;99.90
34833;DHT22;55941;50.800;4.342;2022-12-18T10:28:40;1.20;99.90
34833;DHT22;55941;50.800;4.342;2022-12-18T10:31:20;1.20;99.90
34833;DHT22;55941;50.800;4.342;2022-12-18T10:33:47;1.40;99.90
34833;DHT22;55941;50.800;4.342;2022-12-18T10:36:23;1.20;99.90
34833;DHT22;55941;50.800;4.342;2022-12-18T10:38:51;1.30;99.90
34833;DHT22;55941;50.800;4.342;2022-12-18T10:43:44;1.40;99.90
34833;DHT22;55941;50.800;4.342;2022-12-18T10:51:07;1.50;99.90
34833;DHT22;55941;50.800;4.342;2022-12-18T10:53:36;1.60;99.90
34833;DHT22;55941;50.800;4.342;2022-12-18T10:56:04;1.60;99.90
34833;DHT22;55941;50.800;4.342;2022-12-18T10:58:36;1.50;99.90
34833;DHT22;55941;50.800;4.342;2022-12-18T11:01:09;1.50;99.90
34833;DHT22;55941;50.800;4.342;2022-12-18T11:03:39;1.60;99.90
34833;DHT22;55941;50.800;4.342;2022-12-18T11:06:13;1.70;99.90
34833;DHT22;55941;50.800;4.342;2022-12-18T11:08:41;1.60;99.90
34833;DHT22;55941;50.800;4.342;2022-12-18T11:11:21;1.60;99.90
34833;DHT22;55941;50.800;4.342;2022-12-18T11:16:21;1.80;99.90
34833;DHT22;55941;50.800;4.342;2022-12-18T11:18:47;1.80;99.90
34833;DHT22;55941;50.800;4.342;2022-12-18T11:21:13;1.70;99.90
34833;DHT22;55941;50.800;4.342;2022-12-18T11:23:53;2.00;99.90
34833;DHT22;55941;50.800;4.342;2022-12-18T11:26:20;1.90;99.90
34833;DHT22;55941;50.800;4.342;2022-12-18T11:29:10;2.00;99.90
34833;DHT22;55941;50.800;4.342;2022-12-18T11:31:41;2.10;99.90
34833;DHT22;55941;50.800;4.342;2022-12-18T11:34:28;2.20;99.90
34833;DHT22;55941;50.800;4.342;2022-12-18T11:36:57;2.10;99.90
34833;DHT22;55941;50.800;4.342;2022-12-18T11:39:44;2.10;99.90
34833;DHT22;55941;50.800;4.342;2022-12-18T11:42:22;1.90;99.90
34833;DHT22;55941;50.800;4.342;2022-12-18T11:47:58;2.00;99.90
34833;DHT22;55941;50.800;4.342;2022-12-18T11:53:03;2.10;99.90
34833;DHT22;55941;50.800;4.342;2022-12-18T11:55:56;2.40;99.90
34833;DHT22;55941;50.800;4.342;2022-12-18T11:58:55;2.30;99.90
34833;DHT22;55941;50.800;4.342;2022-12-18T12:06:54;2.20;99.90
34833;DHT22;55941;50.800;4.342;2022-12-18T12:12:12;2.20;99.90
34833;DHT22;55941;50.800;4.342;2022-12-18T12:18:08;2.20;99.90
34833;DHT22;55941;50.800;4.342;2022-12-18T12:25:59;2.60;99.90
34833;DHT22;55941;50.800;4.342;2022-12-18T12:28:56;2.70;99.90
34833;DHT22;55941;50.800;4.342;2022-12-18T12:37:03;2.50;99.90
34833;DHT22;55941;50.800;4.342;2022-12-18T12:39:37;2.60;99.90
34833;DHT22;55941;50.800;4.342;2022-12-18T12:42:05;2.70;99.90
34833;DHT22;55941;50.800;4.342;2022-12-18T12:44:55;2.80;99.90
34833;DHT22;55941;50.800;4.342;2022-12-18T12:47:28;2.70;99.90
34833;DHT22;55941;50.800;4.342;2022-12-18T12:49:57;2.70;99.90
34833;DHT22;55941;50.800;4.342;2022-12-18T12:52:33;2.80;99.90
34833;DHT22;55941;50.800;4.342;2022-12-18T12:55:04;2.90;99.90
34833;DHT22;55941;50.800;4.342;2022-12-18T12:57:41;2.90;99.90
34833;DHT22;55941;50.800;4.342;2022-12-18T13:00:15;2.90;99.90
34833;DHT22;55941;50.800;4.342;2022-12-18T13:05:40;2.80;99.90
34833;DHT22;55941;50.800;4.342;2022-12-18T13:08:24;2.90;99.90
34833;DHT22;55941;50.800;4.342;2022-12-18T13:10:51;2.90;99.90
34833;DHT22;55941;50.800;4.342;2022-12-18T13:13:55;3.00;99.90
34833;DHT22;55941;50.800;4.342;2022-12-18T13:16:24;3.00;99.90
34833;DHT22;55941;50.800;4.342;2022-12-18T13:18:51;2.80;99.90
34833;DHT22;55941;50.800;4.342;2022-12-18T13:21:24;2.70;99.90
34833;DHT22;55941;50.800;4.342;2022-12-18T13:23:52;2.70;99.90
34833;DHT22;55941;50.800;4.342;2022-12-18T13:31:57;2.70;99.90
34833;DHT22;55941;50.800;4.342;2022-12-18T13:34:20;2.80;99.90
34833;DHT22;55941;50.800;4.342;2022-12-18T13:36:47;2.80;99.90
34833;DHT22;55941;50.800;4.342;2022-12-18T13:41:41;3.00;99.90
34833;DHT22;55941;50.800;4.342;2022-12-18T13:44:40;2.90;99.90
34833;DHT22;55941;50.800;4.342;2022-12-18T13:47:32;2.80;99.90
34833;DHT22;55941;50.800;4.342;2022-12-18T13:49:59;2.60;99.90
34833;DHT22;55941;50.800;4.342;2022-12-18T13:52:44;2.60;99.90
34833;DHT22;55941;50.800;4.342;2022-12-18T13:55:17;2.50;99.90
34833;DHT22;55941;50.800;4.342;2022-12-18T13:57:45;2.40;99.90
34833;DHT22;55941;50.800;4.342;2022-12-18T14:00:29;2.40;99.90
34833;DHT22;55941;50.800;4.342;2022-12-18T14:02:58;2.30;99.90
34833;DHT22;55941;50.800;4.342;2022-12-18T14:05:36;2.50;99.90
34833;DHT22;55941;50.800;4.342;2022-12-18T14:08:11;2.50;99.90
34833;DHT22;55941;50.800;4.342;2022-12-18T14:10:46;2.30;99.90
34833;DHT22;55941;50.800;4.342;2022-12-18T14:13:27;2.50;99.90
34833;DHT22;55941;50.800;4.342;2022-12-18T14:15:54;2.60;99.90
34833;DHT22;55941;50.800;4.342;2022-12-18T14:21:03;2.60;99.90
34833;DHT22;55941;50.800;4.342;2022-12-18T14:23:36;2.60;99.90
34833;DHT22;55941;50.800;4.342;2022-12-18T14:26:19;2.60;99.90
34833;DHT22;55941;50.800;4.342;2022-12-18T14:28:46;2.70;99.90
34833;DHT22;55941;50.800;4.342;2022-12-18T14:31:23;2.70;99.90
34833;DHT22;55941;50.800;4.342;2022-12-18T14:33:53;2.70;99.90
34833;DHT22;55941;50.800;4.342;2022-12-18T14:36:22;2.60;99.90
34833;DHT22;55941;50.800;4.342;2022-12-18T14:38:50;2.40;99.90
34833;DHT22;55941;50.800;4.342;2022-12-18T14:41:20;2.30;99.90
34833;DHT22;55941;50.800;4.342;2022-12-18T14:43:49;2.30;99.90
34833;DHT22;55941;50.800;4.342;2022-12-18T14:46:38;2.20;99.90
34833;DHT22;55941;50.800;4.342;2022-12-18T14:51:53;2.60;99.90
34833;DHT22;55941;50.800;4.342;2022-12-18T14:54:20;2.70;99.90
34833;DHT22;55941;50.800;4.342;2022-12-18T14:56:51;2.60;99.90
34833;DHT22;55941;50.800;4.342;2022-12-18T14:59:23;2.60;99.90
34833;DHT22;55941;50.800;4.342;2022-12-18T15:04:37;2.60;99.90
34833;DHT22;55941;50.800;4.342;2022-12-18T15:09:37;2.60;99.90
34833;DHT22;55941;50.800;4.342;2022-12-18T15:12:05;2.50;99.90
34833;DHT22;55941;50.800;4.342;2022-12-18T15:14:39;2.40;99.90
34833;DHT22;55941;50.800;4.342;2022-12-18T15:17:16;2.50;99.90
34833;DHT22;55941;50.800;4.342;2022-12-18T15:19:44;2.60;99.90
34833;DHT22;55941;50.800;4.342;2022-12-18T15:22:22;2.60;99.90
34833;DHT22;55941;50.800;4.342;2022-12-18T15:24:50;2.70;99.90
34833;DHT22;55941;50.800;4.342;2022-12-18T15:27:26;2.70;99.90
34833;DHT22;55941;50.800;4.342;2022-12-18T15:32:38;2.70;99.90
34833;DHT22;55941;50.800;4.342;2022-12-18T15:37:37;2.50;99.90
34833;DHT22;55941;50.800;4.342;2022-12-18T15:40:04;2.50;99.90
34833;DHT22;55941;50.800;4.342;2022-12-18T15:42:31;2.40;99.90
34833;DHT22;55941;50.800;4.342;2022-12-18T15:45:15;2.40;99.90
34833;DHT22;55941;50.800;4.342;2022-12-18T15:47:52;2.40;99.90
34833;DHT22;55941;50.800;4.342;2022-12-18T15:50:21;2.60;99.90
34833;DHT22;55941;50.800;4.342;2022-12-18T15:52:52;2.50;99.90
34833;DHT22;55941;50.800;4.342;2022-12-18T15:55:26;2.50;99.90
34833;DHT22;55941;50.800;4.342;2022-12-18T15:58:11;2.40;99.90
34833;DHT22;55941;50.800;4.342;2022-12-18T16:00:55;2.60;99.90
34833;DHT22;55941;50.800;4.342;2022-12-18T16:03:23;2.50;99.90
34833;DHT22;55941;50.800;4.342;2022-12-18T16:05:53;2.40;99.90
34833;DHT22;55941;50.800;4.342;2022-12-18T16:08:19;2.40;99.90
34833;DHT22;55941;50.800;4.342;2022-12-18T16:10:45;2.60;99.90
34833;DHT22;55941;50.800;4.342;2022-12-18T16:13:21;2.70;99.90
34833;DHT22;55941;50.800;4.342;2022-12-18T16:15:57;2.70;99.90
34833;DHT22;55941;50.800;4.342;2022-12-18T16:18:27;2.80;99.90
34833;DHT22;55941;50.800;4.342;2022-12-18T16:20:53;2.80;99.90
34833;DHT22;55941;50.800;4.342;2022-12-18T16:23:19;2.70;99.90
34833;DHT22;55941;50.800;4.342;2022-12-18T16:25:46;2.80;99.90
34833;DHT22;55941;50.800;4.342;2022-12-18T16:28:22;2.60;99.90
34833;DHT22;55941;50.800;4.342;2022-12-18T16:30:52;2.60;99.90
34833;DHT22;55941;50.800;4.342;2022-12-18T16:33:28;2.70;99.90
34833;DHT22;55941;50.800;4.342;2022-12-18T16:35:57;2.70;99.90
34833;DHT22;55941;50.800;4.342;2022-12-18T16:38:27;2.60;99.90
34833;DHT22;55941;50.800;4.342;2022-12-18T16:41:04;2.50;99.90
34833;DHT22;55941;50.800;4.342;2022-12-18T16:43:55;2.50;99.90
34833;DHT22;55941;50.800;4.342;2022-12-18T16:46:24;2.60;99.90
34833;DHT22;55941;50.800;4.342;2022-12-18T16:48:53;2.70;99.90
34833;DHT22;55941;50.800;4.342;2022-12-18T16:51:20;2.80;99.90
34833;DHT22;55941;50.800;4.342;2022-12-18T16:53:52;2.80;99.90
34833;DHT22;55941;50.800;4.342;2022-12-18T16:56:19;2.80;99.90
34833;DHT22;55941;50.800;4.342;2022-12-18T16:58:50;2.80;99.90
34833;DHT22;55941;50.800;4.342;2022-12-18T17:01:19;2.70;99.90
34833;DHT22;55941;50.800;4.342;2022-12-18T17:04:07;2.70;99.90
34833;DHT22;55941;50.800;4.342;2022-12-18T17:06:37;2.70;99.90
34833;DHT22;55941;50.800;4.342;2022-12-18T17:09:12;2.90;99.90
34833;DHT22;55941;50.800;4.342;2022-12-18T17:11:41;2.80;99.90
34833;DHT22;55941;50.800;4.342;2022-12-18T17:14:09;2.80;99.90
34833;DHT22;55941;50.800;4.342;2022-12-18T17:16:38;2.90;99.90
34833;DHT22;55941;50.800;4.342;2022-12-18T17:19:04;2.80;99.90
34833;DHT22;55941;50.800;4.342;2022-12-18T17:21:30;2.90;99.90
34833;DHT22;55941;50.800;4.342;2022-12-18T17:23:59;2.90;99.90
34833;DHT22;55941;50.800;4.342;2022-12-18T17:26:26;2.80;99.90